createdAt,value
2023-05-14T00:00:26.973Z,41.58
2023-05-14T00:02:53.654Z,41.39
2023-05-14T00:05:20.187Z,41.31
2023-05-14T00:07:46.520Z,41.56
2023-05-14T00:10:12.883Z,41.56
2023-05-14T00:12:39.204Z,42.07
2023-05-14T00:15:06.216Z,42.27
2023-05-14T00:17:32.719Z,42.03
2023-05-14T00:19:59.456Z,41.75
2023-05-14T00:22:25.785Z,41.46
2023-05-14T00:24:52.121Z,41.20
2023-05-14T00:27:18.485Z,41.13
2023-05-14T00:29:45.739Z,41.38
2023-05-14T00:32:12.099Z,41.58
2023-05-14T00:34:38.516Z,41.31
2023-05-14T00:37:05.072Z,41.33
2023-05-14T00:39:31.436Z,41.60
2023-05-14T00:41:57.922Z,41.58
2023-05-14T00:44:24.253Z,42.11
2023-05-14T00:46:50.822Z,42.19
2023-05-14T00:49:17.970Z,42.51
2023-05-14T00:51:46.925Z,42.63
2023-05-14T00:54:17.379Z,42.84
2023-05-14T00:56:46.311Z,43.13
2023-05-14T00:59:13.736Z,43.41
2023-05-14T01:01:40.359Z,43.21
2023-05-14T01:04:07.687Z,43.51
2023-05-14T01:06:55.442Z,43.37
2023-05-14T01:09:27.031Z,43.62
2023-05-14T01:12:19.810Z,43.68
2023-05-14T01:14:56.800Z,44.03
2023-05-14T01:17:28.430Z,43.95
2023-05-14T01:19:56.484Z,44.52
2023-05-14T01:22:22.789Z,44.04
2023-05-14T01:24:49.168Z,44.00
2023-05-14T01:27:56.543Z,43.67
2023-05-14T01:30:23.215Z,42.83
2023-05-14T01:32:53.667Z,43.83
2023-05-14T01:35:25.204Z,43.83
2023-05-14T01:37:53.410Z,44.33
2023-05-14T01:40:19.914Z,44.89
2023-05-14T01:42:46.948Z,44.64
2023-05-14T01:45:13.277Z,44.96
2023-05-14T01:47:39.662Z,45.45
2023-05-14T01:50:06.613Z,45.91
2023-05-14T01:52:32.941Z,45.50
2023-05-14T01:54:59.954Z,45.97
2023-05-14T01:57:26.389Z,46.27
2023-05-14T01:59:52.711Z,45.37
2023-05-14T02:02:19.115Z,45.40
2023-05-14T02:04:45.568Z,45.37
2023-05-14T02:07:11.920Z,45.89
2023-05-14T02:09:38.512Z,46.20
2023-05-14T02:12:05.201Z,46.32
2023-05-14T02:14:31.615Z,46.67
2023-05-14T02:16:57.976Z,46.91
2023-05-14T02:19:24.454Z,46.54
2023-05-14T02:21:50.856Z,46.89
2023-05-14T02:24:17.202Z,47.22
2023-05-14T02:26:43.533Z,47.26
2023-05-14T02:29:09.916Z,46.75
2023-05-14T02:31:36.315Z,46.36
2023-05-14T02:34:03.904Z,46.84
2023-05-14T02:36:30.739Z,47.01
2023-05-14T02:38:59.129Z,47.11
2023-05-14T02:41:25.441Z,47.22
2023-05-14T02:43:52.740Z,47.92
2023-05-14T02:46:19.213Z,47.62
2023-05-14T02:48:45.792Z,47.72
2023-05-14T02:51:12.357Z,47.68
2023-05-14T02:53:38.696Z,47.79
2023-05-14T02:56:05.167Z,48.02
2023-05-14T02:58:32.644Z,47.85
2023-05-14T03:00:59.002Z,47.91
2023-05-14T03:03:25.747Z,47.91
2023-05-14T03:05:52.609Z,48.30
2023-05-14T03:08:18.940Z,47.91
2023-05-14T03:10:45.890Z,47.73
2023-05-14T03:13:12.386Z,48.38
2023-05-14T03:15:38.758Z,48.26
2023-05-14T03:18:05.225Z,48.83
2023-05-14T03:20:31.575Z,48.86
2023-05-14T03:22:58.104Z,49.08
2023-05-14T03:25:24.461Z,48.63
2023-05-14T03:27:50.907Z,48.72
2023-05-14T03:30:17.445Z,49.04
2023-05-14T03:32:44.520Z,48.72
2023-05-14T03:35:10.927Z,48.82
2023-05-14T03:37:37.321Z,48.99
2023-05-14T03:40:04.140Z,48.90
2023-05-14T03:42:30.484Z,49.40
2023-05-14T03:44:56.828Z,49.37
2023-05-14T03:47:23.250Z,49.51
2023-05-14T03:49:50.001Z,49.46
2023-05-14T03:52:16.467Z,48.93
2023-05-14T03:54:42.828Z,48.97
2023-05-14T03:57:09.205Z,49.37
2023-05-14T03:59:35.587Z,49.17
2023-05-14T04:02:02.138Z,49.19
2023-05-14T04:04:28.552Z,49.09
2023-05-14T04:06:54.958Z,49.14
2023-05-14T04:09:21.430Z,49.49
2023-05-14T04:11:47.744Z,49.45
2023-05-14T04:14:14.115Z,49.83
2023-05-14T04:16:40.613Z,49.46
2023-05-14T04:19:07.245Z,49.69
2023-05-14T04:21:33.648Z,49.45
2023-05-14T04:24:00.106Z,49.40
2023-05-14T04:26:26.634Z,49.26
2023-05-14T04:28:53.036Z,49.81
2023-05-14T04:31:19.561Z,49.75
2023-05-14T04:33:45.993Z,49.73
2023-05-14T04:36:12.385Z,49.66
2023-05-14T04:38:38.701Z,50.13
2023-05-14T04:41:06.024Z,50.39
2023-05-14T04:43:32.381Z,50.08
2023-05-14T04:45:58.719Z,49.78
2023-05-14T04:48:25.096Z,50.22
2023-05-14T04:50:52.046Z,50.37
2023-05-14T04:53:18.375Z,50.49
2023-05-14T04:55:44.724Z,50.15
2023-05-14T04:58:11.103Z,50.15
2023-05-14T05:00:37.492Z,50.55
2023-05-14T05:03:04.266Z,50.57
2023-05-14T05:05:30.720Z,50.44
2023-05-14T05:07:57.037Z,50.35
2023-05-14T05:10:24.557Z,50.25
2023-05-14T05:12:51.082Z,50.40
2023-05-14T05:15:17.467Z,50.50
2023-05-14T05:17:43.964Z,50.87
2023-05-14T05:20:10.825Z,51.11
2023-05-14T05:22:37.316Z,50.93
2023-05-14T05:25:08.056Z,51.10
2023-05-14T05:27:34.734Z,51.11
2023-05-14T05:30:02.113Z,51.34
2023-05-14T05:32:28.636Z,51.06
2023-05-14T05:34:54.985Z,51.03
2023-05-14T05:37:21.342Z,50.94
2023-05-14T05:39:48.290Z,51.15
2023-05-14T05:42:14.755Z,51.27
2023-05-14T05:44:41.404Z,51.52
2023-05-14T05:47:07.728Z,51.97
2023-05-14T05:49:34.141Z,52.06
2023-05-14T05:52:00.579Z,51.77
2023-05-14T05:54:27.135Z,51.82
2023-05-14T05:56:53.498Z,51.63
2023-05-14T05:59:19.815Z,51.61
2023-05-14T06:01:46.141Z,51.82
2023-05-14T06:04:12.492Z,51.46
2023-05-14T06:06:38.839Z,51.55
2023-05-14T06:09:06.776Z,51.98
2023-05-14T06:11:33.139Z,51.87
2023-05-14T06:13:59.497Z,51.20
2023-05-14T06:16:26.293Z,50.91
2023-05-14T06:18:53.161Z,50.66
2023-05-14T06:21:19.715Z,50.38
2023-05-14T06:23:46.505Z,49.74
2023-05-14T06:26:13.056Z,49.77
2023-05-14T06:28:39.441Z,49.60
2023-05-14T06:31:05.804Z,49.24
2023-05-14T06:33:32.285Z,48.98
2023-05-14T06:35:59.568Z,48.98
2023-05-14T06:38:25.924Z,49.12
2023-05-14T06:40:53.161Z,48.27
2023-05-14T06:43:19.509Z,48.26
2023-05-14T06:45:48.881Z,48.27
2023-05-14T06:48:15.787Z,47.88
2023-05-14T06:50:42.156Z,48.29
2023-05-14T06:53:08.460Z,47.51
2023-05-14T06:55:34.949Z,46.88
2023-05-14T06:58:01.575Z,46.67
2023-05-14T07:00:28.471Z,46.70
2023-05-14T07:02:54.843Z,45.93
2023-05-14T07:05:21.357Z,45.92
2023-05-14T07:07:47.753Z,45.70
2023-05-14T07:10:14.113Z,45.60
2023-05-14T07:12:40.483Z,45.80
2023-05-14T07:15:07.737Z,45.61
2023-05-14T07:17:34.158Z,44.70
2023-05-14T07:20:00.597Z,44.77
2023-05-14T07:22:27.053Z,44.07
2023-05-14T07:24:53.430Z,43.89
2023-05-14T07:27:19.808Z,43.60
2023-05-14T07:29:46.152Z,43.22
2023-05-14T07:32:15.307Z,42.66
2023-05-14T07:34:42.195Z,42.78
2023-05-14T07:37:08.854Z,42.84
2023-05-14T07:39:35.189Z,42.10
2023-05-14T07:42:01.772Z,42.19
2023-05-14T07:44:28.156Z,42.02
2023-05-14T07:46:54.569Z,42.22
2023-05-14T07:49:20.992Z,41.60
2023-05-14T07:51:47.478Z,41.29
2023-05-14T07:54:13.948Z,41.71
2023-05-14T07:56:40.351Z,41.46
2023-05-14T07:59:07.253Z,41.36
2023-05-14T08:01:33.684Z,41.60
2023-05-14T08:04:00.304Z,40.84
2023-05-14T08:06:27.582Z,40.43
2023-05-14T08:08:54.112Z,40.32
2023-05-14T08:11:21.396Z,40.29
2023-05-14T08:13:47.897Z,39.90
2023-05-14T08:16:14.281Z,39.82
2023-05-14T08:18:41.039Z,39.19
2023-05-14T08:21:07.391Z,40.00
2023-05-14T08:23:33.810Z,38.81
2023-05-14T08:26:00.335Z,38.30
2023-05-14T08:28:26.792Z,37.97
2023-05-14T08:30:53.285Z,38.60
2023-05-14T08:33:19.672Z,38.30
2023-05-14T08:35:46.000Z,38.25
2023-05-14T08:38:12.369Z,37.99
2023-05-14T08:40:40.075Z,38.24
2023-05-14T08:43:07.916Z,38.62
2023-05-14T08:45:35.287Z,39.02
2023-05-14T08:48:08.871Z,37.81
2023-05-14T08:50:36.086Z,37.45
2023-05-14T08:53:02.492Z,37.50
2023-05-14T08:55:29.896Z,37.26
2023-05-14T08:57:56.576Z,37.17
2023-05-14T09:00:23.593Z,36.64
2023-05-14T09:02:51.042Z,36.65
2023-05-14T09:05:18.960Z,36.66
2023-05-14T09:07:45.399Z,36.50
2023-05-14T09:10:13.072Z,36.66
2023-05-14T09:12:39.451Z,36.71
2023-05-14T09:15:06.614Z,35.74
2023-05-14T09:17:33.641Z,35.70
2023-05-14T09:20:00.287Z,35.17
2023-05-14T09:22:30.059Z,35.69
2023-05-14T09:25:11.838Z,35.74
2023-05-14T09:27:38.773Z,35.39
2023-05-14T09:30:10.092Z,35.75
2023-05-14T09:32:38.470Z,34.98
2023-05-14T09:35:17.157Z,35.05
2023-05-14T09:37:46.256Z,35.18
2023-05-14T09:40:13.794Z,34.64
2023-05-14T09:42:40.829Z,34.48
2023-05-14T09:45:08.777Z,34.74
2023-05-14T09:47:36.281Z,34.42
2023-05-14T09:50:03.910Z,34.27
2023-05-14T09:52:30.915Z,33.80
2023-05-14T09:54:57.420Z,33.79
2023-05-14T09:57:24.092Z,34.25
2023-05-14T09:59:50.580Z,33.34
2023-05-14T10:02:26.292Z,33.47
2023-05-14T10:04:54.081Z,35.14
2023-05-14T10:07:29.054Z,33.44
2023-05-14T10:10:01.686Z,33.04
2023-05-14T10:12:32.383Z,32.71
2023-05-14T10:15:03.617Z,32.64
2023-05-14T10:17:33.785Z,33.39
2023-05-14T10:20:02.570Z,32.60
2023-05-14T10:22:33.597Z,32.51
2023-05-14T10:25:00.627Z,32.06
2023-05-14T10:27:27.326Z,32.18
2023-05-14T10:29:55.773Z,32.56
2023-05-14T10:32:25.065Z,31.83
2023-05-14T10:34:53.339Z,31.94
2023-05-14T10:37:26.315Z,32.55
2023-05-14T10:40:02.073Z,32.38
2023-05-14T10:42:40.502Z,31.87
2023-05-14T10:45:08.752Z,31.47
2023-05-14T10:47:36.959Z,31.81
2023-05-14T10:50:06.142Z,32.32
2023-05-14T10:52:34.965Z,32.20
2023-05-14T10:55:11.441Z,31.83
2023-05-14T10:57:40.230Z,32.24
2023-05-14T11:00:09.158Z,32.36
2023-05-14T11:05:18.193Z,32.53
2023-05-14T11:10:30.070Z,32.31
2023-05-14T11:12:59.153Z,32.94
2023-05-14T11:15:28.241Z,32.64
2023-05-14T11:17:54.714Z,32.01
2023-05-14T11:20:21.418Z,31.78
2023-05-14T11:22:49.234Z,30.86
2023-05-14T11:25:15.842Z,30.79
2023-05-14T11:27:46.916Z,31.23
2023-05-14T11:30:14.330Z,30.93
2023-05-14T11:32:41.287Z,31.13
2023-05-14T11:35:08.292Z,29.64
2023-05-14T11:37:34.672Z,29.60
2023-05-14T11:40:01.708Z,29.53
2023-05-14T11:42:28.159Z,29.68
2023-05-14T11:44:54.489Z,29.28
2023-05-14T11:47:22.075Z,29.13
2023-05-14T11:49:49.546Z,29.20
2023-05-14T11:52:19.174Z,29.17
2023-05-14T11:54:45.928Z,28.99
2023-05-14T11:57:22.371Z,29.59
2023-05-14T11:59:49.782Z,29.25
2023-05-14T12:02:19.523Z,29.80
2023-05-14T12:04:51.841Z,29.38
2023-05-14T12:07:18.296Z,27.99
2023-05-14T12:09:49.694Z,28.57
2023-05-14T12:12:23.017Z,28.30
2023-05-14T12:14:50.412Z,27.94
2023-05-14T12:17:18.213Z,27.91
2023-05-14T12:19:47.360Z,27.59
2023-05-14T12:22:15.664Z,27.19
2023-05-14T12:24:43.907Z,26.77
2023-05-14T12:27:10.723Z,26.76
2023-05-14T12:29:41.352Z,27.18
2023-05-14T12:32:09.466Z,26.88
2023-05-14T12:34:37.638Z,27.25
2023-05-14T12:37:04.973Z,27.03
2023-05-14T12:39:33.670Z,27.50
2023-05-14T12:42:00.418Z,27.92
2023-05-14T12:44:26.857Z,26.95
2023-05-14T12:46:53.327Z,27.16
2023-05-14T12:49:20.281Z,27.02
2023-05-14T12:51:47.093Z,27.37
2023-05-14T12:54:15.747Z,27.22
2023-05-14T12:56:42.461Z,27.26
2023-05-14T12:59:09.463Z,26.75
2023-05-14T13:01:36.676Z,26.67
2023-05-14T13:04:03.277Z,26.52
2023-05-14T13:06:29.678Z,27.13
2023-05-14T13:08:56.659Z,26.55
2023-05-14T13:11:22.992Z,26.11
2023-05-14T13:13:49.479Z,26.13
2023-05-14T13:16:16.850Z,26.93
2023-05-14T13:18:43.400Z,26.70
2023-05-14T13:21:09.810Z,26.01
2023-05-14T13:23:36.142Z,26.23
2023-05-14T13:26:02.467Z,26.33
2023-05-14T13:28:28.842Z,26.39
2023-05-14T13:31:04.675Z,26.44
2023-05-14T13:33:30.993Z,25.22
2023-05-14T13:35:57.237Z,26.92
2023-05-14T13:38:23.502Z,26.95
2023-05-14T13:40:49.865Z,25.63
2023-05-14T13:43:16.843Z,25.26
2023-05-14T13:45:43.212Z,25.15
2023-05-14T13:48:09.611Z,25.56
2023-05-14T13:50:35.942Z,25.96
2023-05-14T13:53:02.288Z,25.86
2023-05-14T13:55:28.627Z,25.78
2023-05-14T13:57:55.222Z,25.06
2023-05-14T14:00:21.839Z,26.12
2023-05-14T14:02:48.210Z,26.62
2023-05-14T14:05:14.857Z,27.17
2023-05-14T14:07:41.721Z,27.07
2023-05-14T14:10:08.883Z,27.45
2023-05-14T14:12:35.381Z,26.95
2023-05-14T14:15:02.798Z,26.80
2023-05-14T14:17:29.182Z,26.47
2023-05-14T14:19:55.554Z,26.13
2023-05-14T14:22:22.474Z,26.09
2023-05-14T14:24:49.500Z,25.61
2023-05-14T14:27:15.889Z,25.51
2023-05-14T14:29:42.327Z,25.44
2023-05-14T14:32:08.813Z,25.18
2023-05-14T14:34:35.385Z,24.94
2023-05-14T14:37:01.699Z,25.30
2023-05-14T14:39:28.197Z,25.28
2023-05-14T14:41:54.944Z,25.19
2023-05-14T14:44:21.289Z,25.13
2023-05-14T14:46:47.593Z,25.49
2023-05-14T14:49:13.923Z,25.63
2023-05-14T14:51:40.739Z,25.71
2023-05-14T14:54:07.154Z,26.08
2023-05-14T14:56:33.775Z,26.35
2023-05-14T14:59:01.369Z,26.14
2023-05-14T15:01:27.939Z,26.50
2023-05-14T15:03:54.355Z,26.17
2023-05-14T15:06:20.754Z,26.39
2023-05-14T15:08:47.192Z,26.53
2023-05-14T15:11:14.337Z,26.29
2023-05-14T15:13:41.821Z,26.48
2023-05-14T15:16:08.286Z,26.48
2023-05-14T15:18:34.714Z,26.64
2023-05-14T15:21:01.088Z,27.17
2023-05-14T15:23:27.431Z,26.82
2023-05-14T15:25:53.913Z,26.77
2023-05-14T15:28:20.440Z,27.37
2023-05-14T15:30:49.997Z,27.31
2023-05-14T15:33:19.651Z,27.06
2023-05-14T15:35:46.101Z,26.78
2023-05-14T15:38:12.449Z,26.75
2023-05-14T15:40:38.838Z,25.95
2023-05-14T15:43:05.318Z,26.27
2023-05-14T15:45:31.714Z,26.67
2023-05-14T15:47:58.161Z,26.86
2023-05-14T15:50:25.805Z,26.39
2023-05-14T15:52:52.422Z,26.17
2023-05-14T15:55:19.040Z,25.99
2023-05-14T15:57:45.447Z,26.10
2023-05-14T16:00:12.302Z,26.26
2023-05-14T16:02:39.728Z,26.39
2023-05-14T16:05:08.146Z,27.45
2023-05-14T16:07:34.574Z,27.68
2023-05-14T16:10:01.044Z,28.04
2023-05-14T16:12:27.404Z,28.00
2023-05-14T16:14:53.891Z,28.16
2023-05-14T16:17:20.405Z,28.19
2023-05-14T16:19:46.754Z,28.46
2023-05-14T16:22:13.075Z,28.76
2023-05-14T16:24:39.453Z,29.15
2023-05-14T16:27:06.134Z,29.13
2023-05-14T16:29:32.528Z,29.10
2023-05-14T16:31:59.124Z,28.94
2023-05-14T16:34:25.518Z,29.10
2023-05-14T16:36:51.872Z,29.21
2023-05-14T16:39:18.214Z,29.41
2023-05-14T16:41:44.568Z,29.17
2023-05-14T16:44:10.904Z,29.13
2023-05-14T16:46:37.404Z,29.09
2023-05-14T16:49:03.835Z,29.20
2023-05-14T16:51:30.207Z,29.26
2023-05-14T16:53:56.568Z,29.38
2023-05-14T16:56:23.051Z,28.89
2023-05-14T16:58:49.522Z,28.59
2023-05-14T17:01:16.002Z,28.79
2023-05-14T17:03:43.357Z,28.39
2023-05-14T17:06:10.056Z,28.02
2023-05-14T17:08:36.554Z,27.90
2023-05-14T17:11:05.557Z,28.00
2023-05-14T17:13:32.985Z,28.05
2023-05-14T17:16:00.583Z,28.67
2023-05-14T17:18:27.153Z,28.68
2023-05-14T17:20:53.552Z,28.70
2023-05-14T17:23:20.357Z,28.84
2023-05-14T17:25:46.780Z,28.99
2023-05-14T17:28:13.115Z,28.94
2023-05-14T17:30:39.561Z,29.21
2023-05-14T17:33:06.188Z,29.37
2023-05-14T17:35:35.985Z,29.69
2023-05-14T17:38:03.141Z,30.48
2023-05-14T17:40:29.638Z,30.82
2023-05-14T17:42:55.958Z,30.31
2023-05-14T17:45:22.435Z,29.94
2023-05-14T17:47:49.670Z,30.44
2023-05-14T17:50:16.305Z,30.02
2023-05-14T17:52:44.109Z,30.30
2023-05-14T17:55:11.112Z,30.85
2023-05-14T17:57:37.636Z,30.67
2023-05-14T18:00:07.449Z,30.54
2023-05-14T18:02:33.893Z,30.68
2023-05-14T18:05:00.376Z,30.43
2023-05-14T18:07:27.386Z,30.51
2023-05-14T18:09:53.726Z,30.85
2023-05-14T18:12:20.241Z,31.04
2023-05-14T18:14:46.574Z,30.94
2023-05-14T18:17:12.989Z,30.84
2023-05-14T18:19:40.930Z,31.25
2023-05-14T18:22:07.341Z,31.33
2023-05-14T18:24:33.725Z,31.96
2023-05-14T18:27:00.447Z,31.26
2023-05-14T18:29:26.845Z,31.68
2023-05-14T18:31:53.293Z,31.85
2023-05-14T18:34:19.670Z,32.29
2023-05-14T18:36:50.000Z,31.57
2023-05-14T18:39:16.308Z,31.27
2023-05-14T18:41:42.668Z,31.78
2023-05-14T18:44:08.995Z,31.54
2023-05-14T18:46:35.570Z,31.41
2023-05-14T18:49:02.021Z,31.48
2023-05-14T18:51:29.432Z,31.51
2023-05-14T18:53:56.901Z,31.91
2023-05-14T18:56:23.258Z,32.29
2023-05-14T18:58:49.608Z,31.84
2023-05-14T19:01:15.990Z,32.20
2023-05-14T19:03:42.481Z,32.11
2023-05-14T19:06:09.100Z,32.03
2023-05-14T19:08:35.853Z,32.51
2023-05-14T19:11:02.790Z,32.41
2023-05-14T19:13:30.105Z,32.50
2023-05-14T19:15:56.581Z,32.64
2023-05-14T19:18:22.987Z,32.66
2023-05-14T19:20:49.380Z,33.14
2023-05-14T19:23:15.797Z,33.17
2023-05-14T19:25:42.162Z,33.46
2023-05-14T19:28:08.578Z,33.71
2023-05-14T19:30:34.967Z,33.99
2023-05-14T19:33:01.376Z,34.07
2023-05-14T19:35:27.804Z,34.36
2023-05-14T19:37:54.317Z,34.52
2023-05-14T19:40:20.636Z,35.04
2023-05-14T19:42:46.968Z,35.12
2023-05-14T19:45:13.716Z,35.18
2023-05-14T19:47:40.239Z,35.23
2023-05-14T19:50:08.310Z,35.19
2023-05-14T19:52:34.677Z,34.91
2023-05-14T19:55:00.998Z,35.18
2023-05-14T19:57:27.361Z,35.09
2023-05-14T20:00:12.889Z,35.27
2023-05-14T20:02:40.725Z,36.05
2023-05-14T20:05:11.457Z,36.35
2023-05-14T20:07:40.167Z,36.48
2023-05-14T20:10:07.429Z,36.63
2023-05-14T20:12:33.780Z,36.62
2023-05-14T20:15:00.186Z,37.21
2023-05-14T20:17:26.719Z,37.17
2023-05-14T20:19:53.077Z,37.21
2023-05-14T20:22:19.412Z,37.58
2023-05-14T20:24:45.866Z,37.79
2023-05-14T20:27:12.366Z,37.48
2023-05-14T20:29:38.691Z,37.96
2023-05-14T20:32:05.689Z,38.29
2023-05-14T20:34:32.025Z,37.98
2023-05-14T20:36:58.467Z,38.66
2023-05-14T20:39:24.828Z,38.56
2023-05-14T20:41:51.205Z,38.74
2023-05-14T20:44:18.426Z,38.98
2023-05-14T20:46:46.960Z,38.92
2023-05-14T20:49:13.426Z,38.83
2023-05-14T20:51:39.754Z,38.84
2023-05-14T20:54:06.135Z,38.92
2023-05-14T20:56:32.628Z,39.66
2023-05-14T20:58:58.962Z,39.78
2023-05-14T21:01:25.540Z,39.40
2023-05-14T21:03:52.152Z,39.68
2023-05-14T21:06:18.650Z,40.08
2023-05-14T21:08:45.027Z,40.48
2023-05-14T21:11:11.445Z,40.03
2023-05-14T21:13:37.799Z,40.59
2023-05-14T21:16:04.361Z,41.14
2023-05-14T21:18:32.746Z,41.11
2023-05-14T21:20:59.226Z,41.36
2023-05-14T21:23:25.698Z,41.28
2023-05-14T21:25:54.644Z,41.51
2023-05-14T21:28:22.111Z,42.13
2023-05-14T21:30:52.845Z,41.80
2023-05-14T21:33:19.320Z,42.04
2023-05-14T21:35:45.671Z,42.53
2023-05-14T21:38:12.295Z,42.50
2023-05-14T21:40:38.657Z,42.89
2023-05-14T21:43:05.012Z,42.51
2023-05-14T21:45:31.504Z,42.44
2023-05-14T21:47:58.014Z,42.00
2023-05-14T21:50:24.462Z,41.75
2023-05-14T21:52:51.195Z,40.96
2023-05-14T21:55:17.644Z,40.74
2023-05-14T21:57:44.011Z,40.66
2023-05-14T22:00:13.000Z,40.76
2023-05-14T22:02:39.611Z,40.85
2023-05-14T22:05:06.371Z,41.00
2023-05-14T22:07:32.853Z,41.00
2023-05-14T22:09:59.190Z,41.91
2023-05-14T22:12:26.174Z,41.95
2023-05-14T22:14:52.711Z,41.58
2023-05-14T22:17:19.057Z,41.78
2023-05-14T22:19:45.499Z,41.04
2023-05-14T22:22:11.808Z,41.60
2023-05-14T22:24:38.153Z,41.86
2023-05-14T22:27:04.650Z,42.55
2023-05-14T22:29:31.011Z,42.82
2023-05-14T22:31:57.550Z,42.69
2023-05-14T22:34:24.144Z,43.16
2023-05-14T22:36:50.515Z,43.16
2023-05-14T22:39:16.909Z,43.16
2023-05-14T22:41:43.243Z,43.23
2023-05-14T22:44:09.622Z,43.27
2023-05-14T22:46:36.061Z,43.32
2023-05-14T22:49:03.062Z,43.21
2023-05-14T22:51:29.469Z,43.61
2023-05-14T22:53:55.874Z,43.70
2023-05-14T22:56:22.286Z,43.89
2023-05-14T22:58:48.665Z,43.93
2023-05-14T23:01:15.155Z,44.27
2023-05-14T23:03:41.589Z,44.03
2023-05-14T23:06:07.999Z,44.11
2023-05-14T23:08:34.329Z,44.22
2023-05-14T23:11:00.726Z,44.56
2023-05-14T23:13:27.038Z,44.73
2023-05-14T23:15:53.383Z,44.74
2023-05-14T23:18:19.827Z,45.34
2023-05-14T23:20:46.262Z,45.37
2023-05-14T23:23:12.623Z,45.15
2023-05-14T23:25:39.196Z,45.19
2023-05-14T23:28:05.939Z,44.95
2023-05-14T23:30:32.618Z,45.07
2023-05-14T23:32:59.031Z,45.26
2023-05-14T23:35:25.765Z,45.31
2023-05-14T23:37:52.532Z,45.60
2023-05-14T23:40:18.961Z,45.62
2023-05-14T23:42:45.731Z,45.57
2023-05-14T23:45:13.420Z,45.95
2023-05-14T23:47:40.983Z,45.51
2023-05-14T23:50:07.794Z,45.43
2023-05-14T23:52:34.300Z,45.93
2023-05-14T23:55:00.630Z,45.99
2023-05-14T23:57:27.203Z,45.99
2023-05-14T23:59:53.532Z,46.21
